Latest Weather Observations for Ballina

IDN60801

Issued at 12:34 pm EST Tuesday 21 April 2015 (issued every 30 minutes, with the page automatically refreshed every 10 minutes)

About weather observations | Map of weather stations | Latest weather observations for NSW | Other Formats
Station Details ID: 058198 Name: BALLINA AIRPORT AWS Lat: -28.84 Lon: 153.56 Height: 1.3 m
Data from the previous 72 hours. | See also: Recent months at Ballina
Date/Time
EST
Temp
°C
App
Temp
°C
Dew
Point
Rel
Hum
%
Delta-T
°C
Wind Press
QNH
hPa
Press
MSL
hPa
Rain
since 9 am
mm
Dir
 
Spd
km/h
Gust
km/h
Spd
kts
Gust
kts
21/12:30pm 19.6 16.1 10.3 55 5.0 W 19 26 10 14 1014.3 1014.3 0.0
21/12:00pm 19.3 15.4 9.5 53 5.2 W 20 30 11 16 1014.9 1014.9 0.0
21/11:30am 19.3 15.5 9.8 54 5.1 W 20 32 11 17 1015.3 1015.3 0.0
21/11:00am 19.1 15.6 10.1 56 4.8 W 19 24 10 13 1015.4 1015.4 0.0
21/10:30am 19.7 16.3 10.4 55 5.0 WNW 19 28 10 15 1015.5 1015.5 0.0
21/10:00am 19.1 14.9 9.9 55 4.9 W 22 30 12 16 1015.8 1015.8 0.0
21/09:30am 18.3 14.5 9.9 58 4.5 W 20 28 11 15 1016.0 1016.0 0.0
21/09:00am 17.6 14.1 10.2 62 3.9 W 19 24 10 13 1016.2 1016.2 3.2
21/08:30am 17.3 14.0 9.7 61 4.0 W 17 24 9 13 1016.4 1016.4 3.2
21/08:00am 16.6 13.3 10.9 69 3.0 W 19 24 10 13 1016.3 1016.3 3.2
21/07:30am 15.9 12.6 10.9 72 2.7 W 19 28 10 15 1016.2 1016.2 3.2
21/07:00am 15.0 12.3 11.6 80 1.8 W 17 22 9 12 1016.0 1016.0 3.2
21/06:30am 14.8 12.3 11.0 78 2.0 WSW 15 20 8 11 1016.0 1016.0 3.2
21/06:00am 14.4 12.4 11.6 83 1.5 W 13 19 7 10 1015.6 1015.6 3.2
21/05:30am 15.1 12.5 11.9 81 1.7 W 17 22 9 12 1015.5 1015.5 3.2
21/05:00am 14.5 12.2 11.8 84 1.5 W 15 19 8 10 1015.2 1015.2 3.2
21/04:30am 14.8 13.4 12.1 84 1.5 WNW 11 17 6 9 1015.0 1015.0 3.2
21/04:00am 14.9 13.2 12.6 86 1.3 W 13 17 7 9 1015.0 1015.0 3.2
21/03:30am 15.6 13.7 12.9 84 1.5 W 15 20 8 11 1015.0 1015.0 3.2
21/03:00am 15.8 14.0 13.3 85 1.4 W 15 22 8 12 1014.7 1014.7 3.2
21/02:30am 16.3 13.6 13.6 84 1.5 WNW 20 28 11 15 1014.7 1014.7 3.2
21/02:00am 16.6 14.3 14.2 86 1.4 WNW 19 24 10 13 1014.6 1014.6 3.2
21/01:30am 17.1 16.0 15.4 90 1.0 W 15 20 8 11 1014.9 1014.9 3.2
21/01:00am 17.5 15.6 15.8 90 1.0 WNW 20 28 11 15 1015.2 1015.2 3.2
21/12:30am 17.7 16.0 16.2 91 0.9 WNW 20 28 11 15 1015.3 1015.3 3.2
21/12:00am 17.9 17.5 17.1 95 0.5 WNW 15 22 8 12 1015.7 1015.7 3.2
 
Date/Time
EST
Temp
°C
App
Temp
°C
Dew
Point
Rel
Hum
%
Delta-T
°C
Wind Press
QNH
hPa
Press
MSL
hPa
Rain
since 9 am
mm
Dir
 
Spd
km/h
Gust
km/h
Spd
kts
Gust
kts
20/11:30pm 18.0 20.2 17.5 97 0.3 NNW 2 6 1 3 1015.9 1015.9 3.2
20/11:18pm 18.1 19.7 17.8 98 0.2 NNW 6 9 3 5 1015.8 1015.8 3.2
20/11:00pm 18.1 19.5 17.8 98 0.2 WNW 7 13 4 7 1016.4 1016.4 3.2
20/10:30pm 18.2 18.9 17.9 98 0.2 W 11 17 6 9 1016.7 1016.7 3.0
20/10:00pm 18.1 19.1 17.8 98 0.2 W 9 13 5 7 1016.5 1016.5 3.0
20/09:49pm 18.2 19.8 17.9 98 0.2 W 6 9 3 5 1016.8 1016.8 3.0
20/09:30pm 17.9 20.5 17.6 98 0.2 CALM 0 0 0 0 1017.0 1017.0 3.0
20/09:00pm 17.8 20.3 17.3 97 0.3 CALM 0 0 0 0 1016.9 1016.9 3.0
20/08:30pm 17.9 20.5 17.4 97 0.3 CALM 0 0 0 0 1017.1 1017.1 3.0
20/08:00pm 18.0 19.8 17.5 97 0.3 W 4 7 2 4 1017.4 1017.4 2.8
20/07:30pm 17.9 19.1 17.4 97 0.3 WNW 7 11 4 6 1017.4 1017.4 2.8
20/07:00pm 18.0 18.8 17.4 96 0.4 NE 9 11 5 6 1016.5 1016.5 2.8
20/06:30pm 18.2 19.5 17.6 96 0.4 NNW 7 9 4 5 1017.0 1017.0 2.8
20/06:00pm 18.3 19.7 17.7 96 0.4 W 7 9 4 5 1016.7 1016.7 2.8
20/05:30pm 18.3 19.6 17.5 95 0.5 SW 7 11 4 6 1016.6 1016.6 2.8
20/05:00pm 18.5 19.5 17.8 96 0.4 W 9 13 5 7 1016.6 1016.6 2.8
20/04:30pm 18.4 19.3 17.6 95 0.5 N 9 13 5 7 1016.1 1016.1 2.6
20/04:00pm 18.6 20.0 17.8 95 0.5 WNW 7 11 4 6 1015.9 1015.9 2.4
20/03:30pm 18.8 20.2 17.8 94 0.6 WNW 7 9 4 5 1016.0 1016.0 2.2
20/03:00pm 19.0 19.7 18.0 94 0.6 W 11 13 6 7 1016.6 1016.6 1.8
20/02:30pm 19.1 19.8 17.9 93 0.7 W 11 15 6 8 1016.5 1016.5 1.6
20/02:00pm 19.0 19.9 17.5 91 0.9 W 9 11 5 6 1016.1 1016.1 1.6
20/01:55pm 19.0 20.4 17.7 92 0.8 W 7 11 4 6 1016.1 1016.1 1.6
20/01:30pm 19.0 18.5 17.7 92 0.8 W 17 22 9 12 1016.9 1016.9 1.6
20/01:23pm 19.1 18.3 17.9 93 0.7 WSW 19 24 10 13 1016.8 1016.8 1.6
20/01:00pm 19.1 20.1 17.8 92 0.8 WNW 9 11 5 6 1016.4 1016.4 1.6
20/12:43pm 18.7 18.8 17.5 93 0.7 WSW 13 17 7 9 1016.7 1016.7 1.4
20/12:30pm 18.9 18.4 17.9 94 0.6 W 17 20 9 11 1017.4 1017.4 1.2
20/12:28pm 18.9 18.4 17.9 94 0.6 W 17 20 9 11 1017.5 1017.5 1.2
20/12:00pm 18.6 18.7 17.4 93 0.7 WSW 13 17 7 9 1017.5 1017.5 1.0
20/11:30am 18.6 18.5 17.8 95 0.5 W 15 20 8 11 1017.6 1017.6 1.0
20/11:00am 18.4 18.2 17.6 95 0.5 W 15 17 8 9 1018.2 1018.2 0.8
20/10:54am 18.4 18.1 17.4 94 0.6 W 15 17 8 9 1018.3 1018.3 0.8
20/10:30am 18.1 16.7 17.1 94 0.6 W 20 28 11 15 1018.9 1018.9 0.4
20/10:11am 18.5 17.0 17.7 95 0.5 W 22 28 12 15 1018.9 1018.9 0.2
20/10:00am 18.3 19.5 17.3 94 0.6 SW 7 13 4 7 1017.7 1017.7 0.2
20/09:57am 18.5 19.4 17.5 94 0.6 SW 9 15 5 8 1017.7 1017.7 0.2
20/09:30am 18.3 16.7 17.5 95 0.5 W 22 28 12 15 1018.7 1018.7 0.2
20/09:00am 19.5 19.1 18.8 96 0.4 WSW 19 24 10 13 1018.5 1018.5 11.4
20/08:58am 19.6 19.2 18.9 96 0.4 W 19 24 10 13 1018.4 1018.4 11.4
20/08:30am 19.9 21.2 19.2 96 0.4 S 11 20 6 11 1018.1 1018.1 11.2
20/08:29am 19.9 21.2 19.2 96 0.4 S 11 20 6 11 1018.1 1018.1 11.2
20/08:00am 18.4 19.1 17.9 97 0.3 SSW 11 15 6 8 1018.1 1018.1 11.2
20/07:30am 17.8 18.2 17.2 96 0.4 SW 11 17 6 9 1018.8 1018.8 11.0
20/07:10am 17.6 17.4 16.8 95 0.5 WSW 13 17 7 9 1019.0 1019.0 10.6
20/07:00am 17.7 18.0 16.9 95 0.5 WSW 11 15 6 8 1019.1 1019.1 10.2
20/06:30am 17.8 16.6 17.0 95 0.5 SW 19 24 10 13 1018.7 1018.7 9.8
20/06:00am 17.8 17.0 17.0 95 0.5 SW 17 26 9 14 1018.6 1018.6 9.4
20/05:30am 18.2 17.9 17.4 95 0.5 WSW 15 20 8 11 1018.8 1018.8 8.8
20/05:00am 18.7 18.6 17.9 95 0.5 SW 15 20 8 11 1018.3 1018.3 8.4
20/04:30am 18.5 19.5 17.7 95 0.5 SW 9 15 5 8 1018.4 1018.4 7.8
20/04:28am 18.5 19.5 17.7 95 0.5 SW 9 15 5 8 1018.3 1018.3 7.8
20/04:15am 18.5 18.7 17.7 95 0.5 SSW 13 19 7 10 1018.2 1018.2 7.4
20/04:00am 18.6 18.4 17.6 94 0.6 SSW 15 22 8 12 1018.4 1018.4 6.8
20/03:30am 18.9 18.7 17.6 92 0.8 SW 15 24 8 13 1017.7 1017.7 6.4
20/03:00am 19.3 18.8 17.8 91 0.9 SW 17 22 9 12 1017.7 1017.7 6.2
20/02:30am 19.6 19.2 18.1 91 0.9 WSW 17 24 9 13 1017.6 1017.6 6.0
20/02:21am 19.8 20.0 18.5 92 0.8 SW 15 22 8 12 1017.8 1017.8 6.0
20/02:00am 19.7 20.1 18.2 91 0.9 SSW 13 22 7 12 1017.5 1017.5 6.0
20/01:35am 19.7 20.1 18.2 91 0.9 SW 13 20 7 11 1017.7 1017.7 6.0
20/01:30am 19.7 20.1 18.2 91 0.9 SW 13 19 7 10 1017.8 1017.8 6.0
20/01:00am 19.9 20.8 18.4 91 0.9 SW 11 15 6 8 1017.9 1017.9 6.0
20/12:30am 20.2 20.6 18.9 92 0.8 SW 15 20 8 11 1018.1 1018.1 6.0
20/12:00am 20.4 20.9 19.2 93 0.8 SW 15 19 8 10 1018.7 1018.7 6.0
 
Date/Time
EST
Temp
°C
App
Temp
°C
Dew
Point
Rel
Hum
%
Delta-T
°C
Wind Press
QNH
hPa
Press
MSL
hPa
Rain
since 9 am
mm
Dir
 
Spd
km/h
Gust
km/h
Spd
kts
Gust
kts
19/11:30pm 20.5 21.5 19.5 94 0.6 SW 13 20 7 11 1018.5 1018.5 6.0
19/11:00pm 20.6 21.7 19.6 94 0.6 SW 13 17 7 9 1018.7 1018.7 6.0
19/10:30pm 20.5 22.2 19.3 93 0.8 WSW 9 11 5 6 1018.8 1018.8 6.0
19/10:00pm 20.3 21.5 19.1 93 0.8 WSW 11 13 6 7 1019.0 1019.0 6.0
19/09:30pm 20.6 22.1 18.9 90 1.1 SSW 9 11 5 6 1019.1 1019.1 6.0
19/09:00pm 20.5 22.5 19.2 92 0.8 S 7 9 4 5 1019.2 1019.2 6.0
19/08:30pm 20.6 22.9 19.8 95 0.5 SW 7 9 4 5 1019.0 1019.0 6.0
19/08:00pm 20.8 23.2 20.1 96 0.4 W 7 7 4 4 1018.7 1018.7 6.0
19/07:30pm 20.9 23.4 20.2 96 0.4 W 7 9 4 5 1018.5 1018.5 6.0
19/07:00pm 21.2 24.4 20.5 96 0.5 W 4 7 2 4 1018.1 1018.1 6.0
19/06:30pm 21.3 24.0 20.6 96 0.5 W 7 7 4 4 1017.7 1017.7 6.0
19/06:00pm 21.7 24.7 20.9 95 0.5 NNE 6 6 3 3 1017.6 1017.6 6.0
19/05:30pm 21.9 25.3 20.9 94 0.7 N 4 7 2 4 1017.7 1017.7 6.0
19/05:00pm 22.1 25.8 20.7 92 0.9 WSW 2 7 1 4 1017.4 1017.4 6.0
19/04:30pm 22.1 26.2 20.7 92 0.9 CALM 0 6 0 3 1017.1 1017.1 6.0
19/04:00pm 22.1 24.5 20.9 93 0.8 ENE 9 11 5 6 1016.6 1016.6 6.0
19/03:30pm 21.9 24.1 20.5 92 0.9 N 9 11 5 6 1016.9 1016.9 6.0
19/03:02pm 22.6 24.9 20.7 89 1.2 ENE 9 15 5 8 1016.9 1016.9 6.0
19/03:00pm 22.3 24.4 20.2 88 1.4 ENE 9 15 5 8 1016.9 1016.9 6.0
19/02:30pm 24.4 26.3 19.7 75 3.0 S 9 19 5 10 1016.8 1016.8 1.4
19/02:00pm 26.0 25.8 18.4 63 4.8 ESE 17 24 9 13 1016.3 1016.3 0.0
19/01:30pm 27.9 28.6 17.1 51 6.8 NW 9 20 5 11 1016.5 1016.5 0.0
19/01:00pm 27.6 28.7 18.0 55 6.1 NNE 9 13 5 7 1016.7 1016.7 0.0
19/12:30pm 27.4 27.8 18.1 57 5.9 NNW 13 17 7 9 1017.1 1017.1 0.0
19/12:00pm 27.1 28.1 18.7 60 5.4 WNW 11 17 6 9 1017.7 1017.7 0.0
19/11:30am 26.1 27.7 19.2 65 4.4 SSW 9 15 5 8 1018.2 1018.2 0.0
19/11:00am 26.2 26.3 18.3 61 5.0 WSW 15 20 8 11 1018.4 1018.4 0.0
19/10:30am 26.7 26.8 18.3 60 5.3 N 15 20 8 11 1018.3 1018.3 0.0
19/10:00am 25.4 24.5 17.8 62 4.8 NNW 19 30 10 16 1018.4 1018.4 0.0
19/09:30am 25.2 24.1 17.7 63 4.7 NNW 20 30 11 16 1018.6 1018.6 0.0
19/09:00am 24.6 24.7 18.3 68 4.0 NNW 15 22 8 12 1018.6 1018.6 0.0
19/08:30am 24.0 24.0 18.2 70 3.6 N 15 22 8 12 1018.4 1018.4 0.0
19/08:00am 23.5 23.5 18.2 72 3.3 N 15 24 8 13 1018.5 1018.5 0.0
19/07:30am 22.6 22.9 17.9 75 2.9 N 13 22 7 12 1018.4 1018.4 0.0
19/07:00am 21.1 22.1 17.7 81 2.1 NNW 9 13 5 7 1018.3 1018.3 0.0
19/06:30am 20.3 21.1 17.3 83 1.8 NNE 9 13 5 7 1017.6 1017.6 0.0
19/06:00am 19.6 20.7 17.0 85 1.6 N 7 11 4 6 1017.6 1017.6 0.0
19/05:30am 20.3 19.7 17.5 84 1.7 NNE 17 20 9 11 1017.2 1017.2 0.0
19/05:00am 20.1 20.7 17.7 86 1.5 N 11 15 6 8 1017.4 1017.4 0.0
19/04:30am 20.2 20.7 17.4 84 1.7 N 11 15 6 8 1017.4 1017.4 0.0
19/04:00am 20.7 20.1 17.5 82 2.0 N 17 22 9 12 1017.3 1017.3 0.0
19/03:30am 20.9 20.4 17.7 82 2.0 N 17 26 9 14 1017.5 1017.5 0.0
19/03:00am 20.6 20.2 18.0 85 1.6 N 17 22 9 12 1017.6 1017.6 0.0
19/02:30am 20.7 20.3 18.1 85 1.6 N 17 24 9 13 1017.6 1017.6 0.0
19/02:00am 21.0 20.1 18.2 84 1.7 N 20 32 11 17 1018.2 1018.2 0.0
19/01:30am 21.6 20.6 18.0 80 2.2 N 20 30 11 16 1019.0 1019.0 0.0
19/01:00am 21.7 21.6 17.9 79 2.4 N 15 22 8 12 1018.9 1018.9 0.0
19/12:30am 21.4 22.1 18.0 81 2.1 N 11 15 6 8 1019.2 1019.2 0.0
19/12:00am 21.9 22.7 18.1 79 2.4 N 11 15 6 8 1019.3 1019.3 0.0
 
Date/Time
EST
Temp
°C
App
Temp
°C
Dew
Point
Rel
Hum
%
Delta-T
°C
Wind Press
QNH
hPa
Press
MSL
hPa
Rain
since 9 am
mm
Dir
 
Spd
km/h
Gust
km/h
Spd
kts
Gust
kts
18/11:30pm 22.5 23.0 18.3 77 2.6 NNW 13 19 7 10 1019.5 1019.5 0.0
18/11:00pm 22.6 22.9 17.9 75 2.9 N 13 22 7 12 1019.5 1019.5 0.0
18/10:30pm 22.6 22.4 17.7 74 3.0 N 15 20 8 11 1019.6 1019.6 0.0
18/10:00pm 22.9 22.0 17.8 73 3.2 NNE 19 24 10 13 1019.9 1019.9 0.0
18/09:30pm 22.9 22.3 17.6 72 3.3 NNE 17 24 9 13 1019.9 1019.9 0.0
18/09:00pm 22.8 22.7 17.9 74 3.0 NNE 15 20 8 11 1020.0 1020.0 0.0
18/08:30pm 22.8 22.8 18.1 75 2.9 NNE 15 24 8 13 1020.0 1020.0 0.0
18/08:00pm 22.7 23.3 18.5 77 2.6 NNE 13 15 7 8 1020.0 1020.0 0.0
18/07:30pm 22.9 23.3 18.2 75 2.9 NNE 13 19 7 10 1019.7 1019.7 0.0
18/07:00pm 22.7 23.4 18.0 75 2.9 NNE 11 17 6 9 1019.4 1019.4 0.0
18/06:30pm 23.0 22.7 18.3 75 2.9 NNE 17 24 9 13 1019.3 1019.3 0.0
18/06:00pm 22.7 23.0 18.0 75 2.9 NNE 13 19 7 10 1019.3 1019.3 0.0
18/05:30pm 22.9 23.0 17.4 71 3.4 NNE 13 17 7 9 1019.3 1019.3 0.0
18/05:00pm 23.6 23.4 17.6 69 3.7 NNE 15 20 8 11 1019.2 1019.2 0.0
18/04:30pm 24.3 23.6 17.3 65 4.3 NNE 17 30 9 16 1019.1 1019.1 0.0
18/04:00pm 25.1 23.6 17.6 63 4.7 NNE 22 30 12 16 1018.7 1018.7 0.0
18/03:30pm 25.2 22.9 17.7 63 4.7 NE 26 39 14 21 1018.7 1018.7 0.0
18/03:00pm 26.4 24.9 18.5 62 5.0 NE 24 33 13 18 1018.7 1018.7 0.0
18/02:30pm 26.0 23.7 17.6 60 5.3 NE 26 35 14 19 1018.8 1018.8 0.0
18/02:00pm 25.8 23.4 17.4 59 5.2 NE 26 39 14 21 1019.0 1019.0 0.0
18/01:30pm 26.5 24.3 17.8 58 5.5 NE 26 35 14 19 1019.2 1019.2 0.0
18/01:00pm 26.6 26.0 18.5 61 5.1 NNE 19 30 10 16 1019.8 1019.8 0.0

Other Formats:

Comma delimited format used in spreadsheet applications
http://www.bom.gov.au/fwo/IDN60801/IDN60801.94596.axf

JavaScript Object Notation format (JSON) in row-major order
http://www.bom.gov.au/fwo/IDN60801/IDN60801.94596.json